Time;durP1;ratioP1;P1;durP2;ratioP2;P2;SDS_P1;SDS_P2;PMS_P1;PMS_P2;Temp;Humidity;BMP_temperature;BMP_pressure;BME280_temperature;BME280_humidity;BME280_pressure;Samples;Min_cycle;Max_cycle;Signal;HPM_P1;HPM_P2
2023/05/18 00:01:33;;;;;;;6.63;4.35;;;;;;;;;;6193968;28;20065;-79
2023/05/18 00:04:36;;;;;;;5.22;3.95;;;;;;;;;;6196291;28;20243;-81
2023/05/18 00:07:41;;;;;;;5.88;4.22;;;;;;;;;;6194892;28;20273;-81
2023/05/18 00:10:43;;;;;;;8.90;4.63;;;;;;;;;;6194804;28;20250;-79
2023/05/18 00:13:45;;;;;;;8.13;4.13;;;;;;;;;;6197281;28;20083;-79
2023/05/18 00:16:47;;;;;;;6.35;4.07;;;;;;;;;;6196416;28;20370;-79
2023/05/18 00:19:49;;;;;;;6.30;4.00;;;;;;;;;;6192986;28;20050;-79
2023/05/18 00:22:52;;;;;;;5.43;4.35;;;;;;;;;;6195939;28;20062;-79
2023/05/18 00:25:53;;;;;;;6.28;4.05;;;;;;;;;;6193912;28;20105;-78
2023/05/18 00:28:55;;;;;;;6.07;4.10;;;;;;;;;;6194437;28;20054;-78
2023/05/18 00:31:57;;;;;;;4.45;3.70;;;;;;;;;;6192028;28;20090;-79
2023/05/18 00:34:58;;;;;;;6.43;4.57;;;;;;;;;;6194833;28;20051;-78
2023/05/18 00:38:02;;;;;;;5.63;4.07;;;;;;;;;;6194407;28;20105;-78
2023/05/18 00:41:04;;;;;;;7.05;4.53;;;;;;;;;;6195545;28;20059;-78
2023/05/18 00:44:06;;;;;;;5.50;4.15;;;;;;;;;;6193156;28;20057;-79
2023/05/18 00:47:08;;;;;;;7.10;5.10;;;;;;;;;;6193513;28;20046;-78
2023/05/18 00:50:11;;;;;;;5.07;3.95;;;;;;;;;;6193846;28;20053;-79
2023/05/18 00:53:14;;;;;;;6.60;4.47;;;;;;;;;;6194466;28;20049;-81
2023/05/18 00:56:16;;;;;;;5.47;3.50;;;;;;;;;;6193513;28;20141;-78
2023/05/18 00:59:17;;;;;;;6.25;4.65;;;;;;;;;;6193392;28;20338;-79
2023/05/18 01:02:20;;;;;;;6.20;4.60;;;;;;;;;;6193085;28;20349;-78
2023/05/18 01:05:21;;;;;;;6.63;4.72;;;;;;;;;;6193609;28;20438;-78
2023/05/18 01:08:30;;;;;;;6.20;4.30;;;;;;;;;;6193973;28;20062;-80
2023/05/18 01:11:40;;;;;;;6.32;4.25;;;;;;;;;;6191416;28;20283;-78
2023/05/18 01:14:48;;;;;;;6.30;4.30;;;;;;;;;;6192534;28;20085;-78
2023/05/18 01:18:06;;;;;;;5.82;4.97;;;;;;;;;;6192695;28;20052;-78
2023/05/18 01:21:12;;;;;;;9.43;4.80;;;;;;;;;;6195664;28;20254;-79
2023/05/18 01:24:25;;;;;;;5.97;4.57;;;;;;;;;;6193640;28;20068;-78
2023/05/18 01:27:28;;;;;;;7.90;4.38;;;;;;;;;;6194193;28;20097;-79
2023/05/18 01:30:31;;;;;;;5.43;4.17;;;;;;;;;;6192796;28;20047;-78
2023/05/18 01:33:32;;;;;;;6.22;4.75;;;;;;;;;;6194844;28;20410;-78
2023/05/18 01:36:34;;;;;;;6.88;4.75;;;;;;;;;;6195685;28;20390;-78
2023/05/18 01:39:36;;;;;;;6.68;5.10;;;;;;;;;;6191171;28;20050;-79
2023/05/18 01:42:45;;;;;;;5.97;4.80;;;;;;;;;;6194680;28;20069;-78
2023/05/18 01:45:48;;;;;;;7.25;5.07;;;;;;;;;;6193035;28;20370;-79
2023/05/18 01:48:55;;;;;;;7.72;5.10;;;;;;;;;;6192397;28;20377;-78
2023/05/18 01:51:58;;;;;;;7.47;4.95;;;;;;;;;;6192468;28;20085;-78
2023/05/18 01:55:03;;;;;;;8.32;5.57;;;;;;;;;;6190622;28;21118;-78
2023/05/18 01:58:06;;;;;;;8.50;5.03;;;;;;;;;;6194399;28;20066;-78
2023/05/18 02:01:08;;;;;;;6.55;4.85;;;;;;;;;;6194124;28;20396;-78
2023/05/18 02:04:10;;;;;;;8.55;5.63;;;;;;;;;;6194015;28;20117;-78
2023/05/18 02:07:12;;;;;;;7.97;5.95;;;;;;;;;;6194004;28;20058;-78
2023/05/18 02:10:13;;;;;;;7.45;5.45;;;;;;;;;;6191045;28;20054;-78
2023/05/18 02:13:16;;;;;;;11.73;6.00;;;;;;;;;;6193686;28;20102;-78
2023/05/18 02:16:19;;;;;;;10.73;6.80;;;;;;;;;;6195266;28;20062;-78
2023/05/18 02:19:20;;;;;;;9.25;6.25;;;;;;;;;;6195096;28;20084;-79
2023/05/18 02:22:22;;;;;;;8.63;6.57;;;;;;;;;;6196339;28;20134;-78
2023/05/18 02:25:24;;;;;;;8.57;6.82;;;;;;;;;;6192874;28;20055;-78
2023/05/18 02:28:27;;;;;;;10.95;6.97;;;;;;;;;;6193387;28;20046;-78
2023/05/18 02:31:29;;;;;;;10.75;6.78;;;;;;;;;;6190743;28;20267;-78
2023/05/18 02:34:32;;;;;;;10.35;6.63;;;;;;;;;;6195465;28;20254;-78
2023/05/18 02:37:38;;;;;;;9.52;6.78;;;;;;;;;;6198364;28;20061;-78
2023/05/18 02:40:40;;;;;;;11.07;7.63;;;;;;;;;;6196335;28;20055;-78
2023/05/18 02:43:43;;;;;;;12.05;7.57;;;;;;;;;;6198763;28;20119;-78
2023/05/18 02:46:44;;;;;;;9.93;7.40;;;;;;;;;;6201405;28;20058;-78
2023/05/18 02:49:46;;;;;;;12.27;7.95;;;;;;;;;;6196824;28;20140;-78
2023/05/18 02:52:48;;;;;;;11.02;8.23;;;;;;;;;;6196925;28;20259;-78
2023/05/18 02:55:55;;;;;;;11.63;7.93;;;;;;;;;;6197170;28;20053;-78
2023/05/18 02:58:59;;;;;;;11.68;7.70;;;;;;;;;;6202014;28;20050;-78
2023/05/18 03:02:01;;;;;;;11.50;8.38;;;;;;;;;;6195370;28;20134;-79
2023/05/18 03:05:04;;;;;;;12.70;8.65;;;;;;;;;;6196558;28;20145;-78
2023/05/18 03:08:06;;;;;;;12.40;9.30;;;;;;;;;;6195823;28;20050;-78
2023/05/18 03:11:07;;;;;;;13.95;9.70;;;;;;;;;;6197436;28;20906;-79
2023/05/18 03:14:10;;;;;;;13.68;10.10;;;;;;;;;;6199196;28;20050;-78
2023/05/18 03:17:12;;;;;;;12.90;9.35;;;;;;;;;;6196452;28;20448;-78
2023/05/18 03:20:14;;;;;;;13.57;10.35;;;;;;;;;;6195667;28;20331;-78
2023/05/18 03:23:15;;;;;;;16.85;11.35;;;;;;;;;;6196416;28;20063;-78
2023/05/18 03:26:17;;;;;;;16.25;11.68;;;;;;;;;;6197514;28;20047;-79
2023/05/18 03:29:20;;;;;;;14.82;11.88;;;;;;;;;;6197941;28;20054;-79
2023/05/18 03:32:23;;;;;;;19.43;12.23;;;;;;;;;;6196819;28;20050;-78
2023/05/18 03:35:25;;;;;;;17.63;12.18;;;;;;;;;;6195761;28;20062;-78
2023/05/18 03:38:26;;;;;;;15.88;11.52;;;;;;;;;;6191797;28;20247;-78
2023/05/18 03:41:28;;;;;;;18.60;11.90;;;;;;;;;;6197529;28;20058;-78
2023/05/18 03:44:31;;;;;;;17.70;12.55;;;;;;;;;;6196989;28;20046;-78
2023/05/18 03:47:33;;;;;;;19.17;12.20;;;;;;;;;;6194063;28;20065;-78
2023/05/18 03:50:35;;;;;;;16.83;13.27;;;;;;;;;;6195890;28;20050;-80
2023/05/18 03:53:37;;;;;;;17.08;12.52;;;;;;;;;;6195029;28;20054;-78
2023/05/18 03:56:38;;;;;;;17.48;13.55;;;;;;;;;;6195637;28;20360;-78
2023/05/18 03:59:42;;;;;;;24.08;14.43;;;;;;;;;;6190079;28;20058;-78
2023/05/18 04:02:43;;;;;;;18.73;13.83;;;;;;;;;;6195686;28;20075;-78
2023/05/18 04:05:45;;;;;;;16.85;13.27;;;;;;;;;;6197051;28;20170;-78
2023/05/18 04:08:46;;;;;;;16.27;13.18;;;;;;;;;;6192969;28;20069;-78
2023/05/18 04:11:48;;;;;;;17.02;13.50;;;;;;;;;;6196008;28;20096;-78
2023/05/18 04:14:53;;;;;;;20.65;13.60;;;;;;;;;;6199605;28;20065;-78
2023/05/18 04:17:54;;;;;;;16.73;12.95;;;;;;;;;;6195869;28;20058;-78
2023/05/18 04:20:56;;;;;;;15.98;12.57;;;;;;;;;;6193670;28;20066;-78
2023/05/18 04:24:01;;;;;;;17.77;13.50;;;;;;;;;;6194757;28;20062;-81
2023/05/18 04:27:03;;;;;;;16.23;13.23;;;;;;;;;;6190785;28;20105;-76
2023/05/18 04:30:09;;;;;;;16.15;13.07;;;;;;;;;;6195562;28;20648;-75
2023/05/18 04:33:11;;;;;;;19.30;14.93;;;;;;;;;;6196316;28;20054;-76
2023/05/18 04:36:13;;;;;;;19.10;14.68;;;;;;;;;;6195537;28;20140;-79
2023/05/18 04:39:15;;;;;;;21.02;15.15;;;;;;;;;;6192096;28;20137;-76
2023/05/18 04:42:17;;;;;;;19.48;15.15;;;;;;;;;;6192784;28;20051;-77
2023/05/18 04:45:21;;;;;;;18.42;14.75;;;;;;;;;;6195941;28;20093;-76
2023/05/18 04:48:24;;;;;;;21.40;14.40;;;;;;;;;;6194314;28;20046;-76
2023/05/18 04:51:26;;;;;;;18.70;13.55;;;;;;;;;;6195080;28;20267;-77
2023/05/18 04:54:30;;;;;;;20.13;14.73;;;;;;;;;;6196544;28;20100;-77
2023/05/18 04:57:32;;;;;;;17.13;14.07;;;;;;;;;;6193229;28;20057;-78
2023/05/18 05:00:35;;;;;;;17.08;13.35;;;;;;;;;;6197047;28;20038;-77
2023/05/18 05:03:37;;;;;;;18.50;14.00;;;;;;;;;;6192071;28;20061;-77
2023/05/18 05:06:38;;;;;;;19.83;13.48;;;;;;;;;;6194690;28;20464;-78
2023/05/18 05:09:40;;;;;;;18.70;14.18;;;;;;;;;;6189992;28;20051;-80
2023/05/18 05:12:42;;;;;;;21.55;14.57;;;;;;;;;;6192990;28;20314;-78
2023/05/18 05:15:45;;;;;;;18.13;14.07;;;;;;;;;;6192397;28;20057;-79
2023/05/18 05:18:47;;;;;;;18.37;14.93;;;;;;;;;;6192217;28;20062;-79
2023/05/18 05:21:48;;;;;;;17.88;14.18;;;;;;;;;;6189291;28;20245;-80
2023/05/18 05:24:50;;;;;;;20.90;15.68;;;;;;;;;;6191261;28;20109;-79
2023/05/18 05:27:51;;;;;;;22.75;16.17;;;;;;;;;;6190921;28;20042;-79
2023/05/18 05:30:54;;;;;;;22.80;17.10;;;;;;;;;;6194930;28;20054;-78
2023/05/18 05:33:56;;;;;;;21.03;16.17;;;;;;;;;;6190713;28;20096;-78
2023/05/18 05:36:58;;;;;;;20.90;15.60;;;;;;;;;;6192244;28;20068;-79
2023/05/18 05:39:59;;;;;;;18.13;14.77;;;;;;;;;;6189808;28;20054;-79
2023/05/18 05:43:01;;;;;;;19.42;13.95;;;;;;;;;;6195088;28;20406;-78
2023/05/18 05:46:04;;;;;;;17.23;13.55;;;;;;;;;;6192962;28;20046;-78
2023/05/18 05:49:06;;;;;;;13.40;9.88;;;;;;;;;;6194167;28;20058;-80
2023/05/18 05:52:07;;;;;;;10.15;7.65;;;;;;;;;;6190546;28;20054;-77
2023/05/18 05:55:09;;;;;;;9.48;6.88;;;;;;;;;;6194381;28;20054;-81
2023/05/18 05:58:11;;;;;;;10.60;6.05;;;;;;;;;;6194270;28;20054;-79
2023/05/18 06:01:14;;;;;;;11.43;6.47;;;;;;;;;;6193999;28;20070;-79
2023/05/18 06:04:16;;;;;;;6.88;5.30;;;;;;;;;;6192613;28;20050;-79
2023/05/18 06:07:17;;;;;;;7.10;5.18;;;;;;;;;;6191890;28;20339;-80
2023/05/18 06:10:19;;;;;;;11.02;5.60;;;;;;;;;;6197043;28;20047;-79
2023/05/18 06:13:21;;;;;;;7.47;5.65;;;;;;;;;;6196713;28;20054;-78
2023/05/18 06:16:25;;;;;;;7.70;5.15;;;;;;;;;;6198192;28;20066;-78
2023/05/18 06:19:26;;;;;;;;;;;;;;;;;;6196298;28;20061;-78
2023/05/18 06:22:28;;;;;;;6.47;4.43;;;;;;;;;;6198115;28;19964;-78
2023/05/18 06:25:29;;;;;;;10.93;5.60;;;;;;;;;;6197188;28;20054;-79
2023/05/18 06:28:31;;;;;;;6.45;4.60;;;;;;;;;;6195838;28;20049;-80
2023/05/18 06:31:34;;;;;;;7.90;4.65;;;;;;;;;;6197452;28;20065;-78
2023/05/18 06:34:36;;;;;;;9.23;4.30;;;;;;;;;;6200286;28;20042;-79
2023/05/18 06:37:38;;;;;;;6.22;4.53;;;;;;;;;;6193869;28;20488;-77
2023/05/18 06:40:39;;;;;;;6.65;4.22;;;;;;;;;;6196553;28;20230;-79
2023/05/18 06:43:41;;;;;;;7.78;4.68;;;;;;;;;;6195542;28;20046;-79
2023/05/18 06:46:44;;;;;;;8.00;4.70;;;;;;;;;;6198123;28;20212;-79
2023/05/18 06:49:46;;;;;;;7.03;4.93;;;;;;;;;;6195574;28;20274;-79
2023/05/18 06:52:48;;;;;;;8.27;5.40;;;;;;;;;;6196800;28;20112;-78
2023/05/18 06:55:49;;;;;;;11.80;5.38;;;;;;;;;;6195897;28;20400;-78
2023/05/18 06:58:51;;;;;;;8.48;5.57;;;;;;;;;;6196265;28;20050;-78
2023/05/18 07:01:54;;;;;;;11.70;6.35;;;;;;;;;;6196055;28;20058;-78
2023/05/18 07:04:55;;;;;;;9.30;6.57;;;;;;;;;;6195914;28;20046;-77
2023/05/18 07:07:57;;;;;;;8.52;6.50;;;;;;;;;;6194730;28;20054;-82
2023/05/18 07:11:01;;;;;;;8.50;6.15;;;;;;;;;;6196663;28;20109;-82
2023/05/18 07:14:02;;;;;;;11.13;6.05;;;;;;;;;;6196493;28;20922;-82
2023/05/18 07:17:06;;;;;;;8.75;6.30;;;;;;;;;;6194526;28;20100;-83
2023/05/18 07:20:09;;;;;;;7.75;5.63;;;;;;;;;;6195244;28;20058;-88
2023/05/18 07:23:11;;;;;;;10.90;5.80;;;;;;;;;;6197826;28;20061;-87
2023/05/18 07:26:12;;;;;;;7.95;5.40;;;;;;;;;;6196230;28;20092;-88
2023/05/18 07:29:14;;;;;;;8.85;6.35;;;;;;;;;;6197534;28;20358;-87
2023/05/18 07:32:17;;;;;;;7.93;5.40;;;;;;;;;;6195849;28;20054;-88
2023/05/18 07:35:20;;;;;;;8.77;5.50;;;;;;;;;;6198927;28;20050;-87
2023/05/18 07:38:22;;;;;;;9.05;5.70;;;;;;;;;;6191599;28;20291;-88
2023/05/18 07:41:24;;;;;;;7.28;5.90;;;;;;;;;;6194878;28;20058;-86
2023/05/18 07:44:25;;;;;;;8.15;5.60;;;;;;;;;;6194962;28;20054;-88
2023/05/18 07:47:28;;;;;;;7.00;5.82;;;;;;;;;;6195940;28;20058;-89
2023/05/18 07:50:30;;;;;;;10.13;5.80;;;;;;;;;;6210640;28;20126;-88
2023/05/18 07:53:33;;;;;;;6.95;5.07;;;;;;;;;;6198484;28;20519;-88
2023/05/18 07:56:35;;;;;;;8.27;5.38;;;;;;;;;;6196222;28;20105;-88
2023/05/18 07:59:36;;;;;;;7.53;5.22;;;;;;;;;;6194718;28;20054;-90
2023/05/18 08:02:40;;;;;;;6.32;4.75;;;;;;;;;;6197685;28;20046;-89
2023/05/18 08:05:42;;;;;;;8.23;4.80;;;;;;;;;;6196247;28;20089;-89
2023/05/18 08:08:43;;;;;;;5.97;4.45;;;;;;;;;;6197141;28;20061;-89
2023/05/18 08:11:45;;;;;;;8.93;5.03;;;;;;;;;;6195593;28;20058;-87
2023/05/18 08:14:47;;;;;;;6.35;4.68;;;;;;;;;;6196392;28;20050;-88
2023/05/18 08:17:51;;;;;;;8.43;4.65;;;;;;;;;;6196263;28;20053;-89
2023/05/18 08:20:54;;;;;;;9.15;4.65;;;;;;;;;;6196450;28;20393;-89
2023/05/18 08:23:56;;;;;;;6.07;4.28;;;;;;;;;;6195542;28;20351;-88
2023/05/18 08:26:58;;;;;;;5.90;4.00;;;;;;;;;;6195959;28;20070;-88
2023/05/18 08:29:59;;;;;;;8.15;3.38;;;;;;;;;;6195528;28;20384;-81
2023/05/18 08:33:02;;;;;;;7.15;3.70;;;;;;;;;;6197102;28;20076;-77
2023/05/18 08:36:05;;;;;;;7.70;3.17;;;;;;;;;;6196782;28;20100;-76
2023/05/18 08:39:08;;;;;;;5.72;2.90;;;;;;;;;;6192389;28;20242;-75
2023/05/18 08:42:16;;;;;;;4.90;2.90;;;;;;;;;;6193016;28;20061;-76
2023/05/18 08:45:23;;;;;;;6.70;2.63;;;;;;;;;;6193886;28;20059;-77
2023/05/18 08:48:28;;;;;;;5.82;2.72;;;;;;;;;;6196276;28;20061;-75
2023/05/18 08:51:31;;;;;;;7.32;2.78;;;;;;;;;;6193222;28;20058;-78
2023/05/18 08:54:33;;;;;;;4.38;2.60;;;;;;;;;;6196460;28;20069;-78
2023/05/18 08:57:35;;;;;;;7.40;3.03;;;;;;;;;;6193835;28;20073;-79
2023/05/18 09:00:37;;;;;;;4.00;2.70;;;;;;;;;;6194255;28;20117;-76
2023/05/18 09:03:40;;;;;;;5.15;2.53;;;;;;;;;;6194658;28;20057;-78
2023/05/18 09:06:42;;;;;;;5.38;2.72;;;;;;;;;;6196987;28;20097;-78
2023/05/18 09:09:44;;;;;;;5.00;2.78;;;;;;;;;;6194333;28;20062;-78
2023/05/18 09:12:47;;;;;;;7.00;2.65;;;;;;;;;;6198227;28;20054;-79
2023/05/18 09:15:50;;;;;;;5.65;2.28;;;;;;;;;;6195330;28;20061;-79
2023/05/18 09:18:53;;;;;;;8.10;2.30;;;;;;;;;;6193281;28;20050;-78
2023/05/18 09:21:55;;;;;;;3.88;2.50;;;;;;;;;;6194339;28;20594;-80
2023/05/18 09:24:57;;;;;;;3.58;2.40;;;;;;;;;;6194540;28;20057;-79
2023/05/18 09:27:59;;;;;;;3.58;2.30;;;;;;;;;;6193261;28;20144;-80
2023/05/18 09:31:01;;;;;;;6.05;2.53;;;;;;;;;;6194212;28;20062;-80
2023/05/18 09:34:05;;;;;;;4.45;2.75;;;;;;;;;;6194242;28;20062;-78
2023/05/18 09:37:06;;;;;;;;;;;;;;;;;;6193133;28;20055;-80
2023/05/18 09:40:09;;;;;;;5.63;2.45;;;;;;;;;;6193541;28;19973;-79
2023/05/18 09:43:10;;;;;;;5.55;2.13;;;;;;;;;;6193596;28;20055;-78
2023/05/18 09:46:13;;;;;;;4.97;2.53;;;;;;;;;;6197303;28;20074;-79
2023/05/18 09:49:21;;;;;;;4.10;2.53;;;;;;;;;;6199362;28;20330;-78
2023/05/18 09:52:23;;;;;;;4.68;2.50;;;;;;;;;;6198471;28;20323;-78
2023/05/18 09:55:25;;;;;;;5.53;2.53;;;;;;;;;;6197996;28;20095;-77
2023/05/18 09:58:31;;;;;;;6.10;2.60;;;;;;;;;;6197824;28;20065;-80
2023/05/18 10:01:34;;;;;;;5.75;3.22;;;;;;;;;;6196721;28;20058;-80
2023/05/18 10:04:40;;;;;;;5.55;2.35;;;;;;;;;;6197502;28;20227;-78
2023/05/18 10:07:43;;;;;;;6.35;2.58;;;;;;;;;;6196140;28;20366;-79
2023/05/18 10:10:47;;;;;;;4.97;2.25;;;;;;;;;;6198895;28;20047;-78
2023/05/18 10:13:53;;;;;;;8.90;2.10;;;;;;;;;;6196724;28;20121;-80
2023/05/18 10:16:55;;;;;;;6.38;2.17;;;;;;;;;;6198313;28;20046;-79
2023/05/18 10:19:58;;;;;;;6.22;2.28;;;;;;;;;;6197631;28;20238;-79
2023/05/18 10:23:03;;;;;;;4.90;2.00;;;;;;;;;;6198651;28;20101;-78
2023/05/18 10:26:08;;;;;;;5.97;1.83;;;;;;;;;;6196535;28;20109;-78
2023/05/18 10:29:10;;;;;;;4.95;2.85;;;;;;;;;;6198344;28;20050;-79
2023/05/18 10:32:12;;;;;;;4.97;2.42;;;;;;;;;;6195461;28;20054;-78
2023/05/18 10:35:16;;;;;;;6.03;2.40;;;;;;;;;;6196551;28;20082;-78
2023/05/18 10:38:20;;;;;;;6.88;2.67;;;;;;;;;;6198862;28;20062;-79
2023/05/18 10:41:22;;;;;;;;;;;;;;;;;;6195081;28;20123;-78
2023/05/18 10:44:24;;;;;;;7.05;2.35;;;;;;;;;;6196156;28;19930;-76
2023/05/18 10:47:27;;;;;;;3.03;1.88;;;;;;;;;;6197728;28;20097;-77
2023/05/18 10:50:31;;;;;;;6.78;2.50;;;;;;;;;;6195716;28;20279;-76
2023/05/18 10:53:33;;;;;;;4.93;2.35;;;;;;;;;;6195059;28;20307;-77
2023/05/18 10:56:36;;;;;;;5.97;2.40;;;;;;;;;;6197393;28;20059;-75
2023/05/18 10:59:39;;;;;;;3.50;1.80;;;;;;;;;;6194256;28;20074;-79
2023/05/18 11:02:42;;;;;;;4.85;2.60;;;;;;;;;;6196517;28;20066;-79
2023/05/18 11:05:49;;;;;;;5.28;2.40;;;;;;;;;;6197773;28;20054;-80
2023/05/18 11:08:51;;;;;;;5.47;2.97;;;;;;;;;;6196118;28;20067;-82
2023/05/18 11:11:54;;;;;;;4.97;2.05;;;;;;;;;;6197280;28;20475;-80
2023/05/18 11:14:57;;;;;;;5.00;2.22;;;;;;;;;;6196772;28;20046;-80
2023/05/18 11:18:13;;;;;;;4.57;2.75;;;;;;;;;;6196723;28;20323;-79
2023/05/18 11:21:21;;;;;;;5.43;2.85;;;;;;;;;;6198891;28;20058;-78
2023/05/18 11:24:24;;;;;;;6.07;2.92;;;;;;;;;;6173328;28;20149;-80
2023/05/18 11:27:26;;;;;;;;;;;;;;;;;;6167181;28;20054;-78
2023/05/18 11:30:28;;;;;;;5.68;2.90;;;;;;;;;;6197490;28;20252;-81
2023/05/18 11:33:30;;;;;;;7.38;2.70;;;;;;;;;;6198548;28;20050;-80
2023/05/18 11:36:45;;;;;;;5.50;2.78;;;;;;;;;;6197683;28;20086;-81
2023/05/18 11:39:54;;;;;;;5.47;2.70;;;;;;;;;;6197867;28;20085;-80
2023/05/18 11:42:58;;;;;;;7.03;2.58;;;;;;;;;;6195823;28;20113;-80
2023/05/18 11:46:00;;;;;;;4.07;3.30;;;;;;;;;;6197409;28;20065;-80
2023/05/18 11:49:03;;;;;;;4.55;2.72;;;;;;;;;;6197734;28;20046;-81
2023/05/18 11:52:16;;;;;;;5.53;2.95;;;;;;;;;;6193882;28;20058;-80
2023/05/18 11:55:19;;;;;;;6.50;3.05;;;;;;;;;;6196715;28;20046;-82
2023/05/18 11:58:21;;;;;;;;;;;;;;;;;;6197610;28;20062;-82
2023/05/18 12:01:23;;;;;;;4.72;3.00;;;;;;;;;;6193888;28;19965;-83
2023/05/18 12:04:25;;;;;;;5.50;2.55;;;;;;;;;;6199922;28;20271;-81
2023/05/18 12:07:29;;;;;;;5.80;2.70;;;;;;;;;;6197213;28;20046;-81
2023/05/18 12:10:31;;;;;;;6.03;3.05;;;;;;;;;;6196003;28;20050;-81
2023/05/18 12:13:32;;;;;;;5.13;2.92;;;;;;;;;;6196710;28;20050;-80
2023/05/18 12:16:36;;;;;;;4.05;2.60;;;;;;;;;;6195115;28;20047;-80
2023/05/18 12:19:42;;;;;;;5.53;2.50;;;;;;;;;;6198135;28;20130;-82
2023/05/18 12:22:48;;;;;;;6.85;2.80;;;;;;;;;;6196279;28;20059;-78
2023/05/18 12:25:50;;;;;;;5.07;2.70;;;;;;;;;;6195959;28;20274;-75
2023/05/18 12:28:53;;;;;;;4.00;2.55;;;;;;;;;;6195027;28;20049;-80
2023/05/18 12:31:55;;;;;;;2.70;2.10;;;;;;;;;;6177095;28;20150;-80
2023/05/18 12:34:56;;;;;;;2.92;2.10;;;;;;;;;;6170225;28;20058;-78
2023/05/18 12:38:00;;;;;;;4.47;2.28;;;;;;;;;;6172299;28;20043;-80
2023/05/18 12:41:01;;;;;;;;;;;;;;;;;;6167524;28;20051;-80
2023/05/18 12:44:03;;;;;;;3.08;2.30;;;;;;;;;;6168811;28;19918;-79
2023/05/18 12:47:05;;;;;;;3.97;2.38;;;;;;;;;;6170466;28;20327;-80
2023/05/18 12:50:07;;;;;;;4.35;2.47;;;;;;;;;;6169097;28;20062;-80
2023/05/18 12:53:10;;;;;;;4.07;2.42;;;;;;;;;;6172275;28;20311;-81
2023/05/18 12:56:13;;;;;;;4.43;1.85;;;;;;;;;;6172089;28;20389;-82
2023/05/18 12:59:17;;;;;;;4.45;2.47;;;;;;;;;;6186815;28;20061;-78
2023/05/18 13:02:31;;;;;;;3.08;2.10;;;;;;;;;;6182316;28;21135;-80
2023/05/18 13:05:33;;;;;;;5.35;2.03;;;;;;;;;;6170924;28;20047;-80
2023/05/18 13:08:36;;;;;;;2.28;1.70;;;;;;;;;;6171372;28;20054;-80
2023/05/18 13:11:38;;;;;;;3.28;2.08;;;;;;;;;;6173202;28;20051;-80
2023/05/18 13:14:41;;;;;;;5.22;2.10;;;;;;;;;;6171890;28;20055;-81
2023/05/18 13:17:57;;;;;;;4.45;2.10;;;;;;;;;;6168561;28;20058;-80
2023/05/18 13:20:58;;;;;;;4.80;2.10;;;;;;;;;;6172560;28;20055;-79
2023/05/18 13:24:02;;;;;;;7.85;2.05;;;;;;;;;;6168591;28;20169;-79
2023/05/18 13:27:03;;;;;;;5.10;2.28;;;;;;;;;;6169501;28;20351;-79
2023/05/18 13:30:06;;;;;;;2.65;2.15;;;;;;;;;;6167908;28;20066;-80
2023/05/18 13:33:09;;;;;;;2.53;1.98;;;;;;;;;;6170372;28;20067;-80
2023/05/18 13:36:11;;;;;;;3.05;2.15;;;;;;;;;;6181420;28;20042;-80
2023/05/18 13:39:14;;;;;;;3.40;1.95;;;;;;;;;;6192561;28;20113;-79
2023/05/18 13:42:19;;;;;;;4.78;1.80;;;;;;;;;;6195307;28;20350;-80
2023/05/18 13:45:21;;;;;;;4.72;2.33;;;;;;;;;;6192673;28;20414;-79
2023/05/18 13:48:23;;;;;;;2.73;2.27;;;;;;;;;;6194176;28;20050;-79
2023/05/18 13:51:25;;;;;;;3.43;2.20;;;;;;;;;;6194374;28;20046;-79
2023/05/18 13:54:28;;;;;;;2.78;2.33;;;;;;;;;;6192995;28;20245;-79
2023/05/18 13:57:30;;;;;;;;;;;;;;;;;;6192089;28;20058;-78
2023/05/18 14:00:32;;;;;;;5.05;2.47;;;;;;;;;;6193240;28;20240;-78
2023/05/18 14:03:35;;;;;;;3.95;2.03;;;;;;;;;;6192059;28;21399;-78
2023/05/18 14:06:36;;;;;;;4.60;2.33;;;;;;;;;;6176358;28;20302;-80
2023/05/18 14:09:39;;;;;;;4.13;2.38;;;;;;;;;;6184725;28;20317;-79
2023/05/18 14:12:42;;;;;;;3.95;2.40;;;;;;;;;;6170054;28;20055;-81
2023/05/18 14:15:43;;;;;;;2.85;2.10;;;;;;;;;;6166922;28;20090;-79
2023/05/18 14:18:45;;;;;;;3.63;2.28;;;;;;;;;;6167056;28;20051;-79
2023/05/18 14:21:47;;;;;;;4.28;2.25;;;;;;;;;;6167383;28;20238;-79
2023/05/18 14:24:50;;;;;;;2.80;1.83;;;;;;;;;;6167771;28;20054;-80
2023/05/18 14:27:52;;;;;;;2.40;1.60;;;;;;;;;;6166539;28;20050;-80
2023/05/18 14:30:53;;;;;;;7.03;1.90;;;;;;;;;;6170923;28;20242;-80
2023/05/18 14:33:55;;;;;;;3.45;1.45;;;;;;;;;;6173439;28;20058;-81
2023/05/18 14:36:57;;;;;;;3.25;1.30;;;;;;;;;;6189510;28;20117;-79
2023/05/18 14:40:00;;;;;;;2.00;1.50;;;;;;;;;;6174167;28;20185;-79
2023/05/18 14:43:01;;;;;;;4.03;2.08;;;;;;;;;;6170883;28;20055;-80
2023/05/18 14:46:03;;;;;;;2.45;1.88;;;;;;;;;;6173168;28;20054;-80
2023/05/18 14:49:05;;;;;;;2.15;1.60;;;;;;;;;;6171387;28;20059;-81
2023/05/18 14:52:06;;;;;;;4.65;1.70;;;;;;;;;;6174990;28;20046;-80
2023/05/18 14:55:10;;;;;;;3.20;1.42;;;;;;;;;;6169438;28;20274;-81
2023/05/18 14:58:13;;;;;;;5.28;2.03;;;;;;;;;;6174344;28;20371;-79
2023/05/18 15:01:15;;;;;;;;;;;;;;;;;;6174098;28;20066;-80
2023/05/18 15:04:16;;;;;;;4.30;2.50;;;;;;;;;;6173603;28;19930;-81
2023/05/18 15:07:18;;;;;;;4.20;2.08;;;;;;;;;;6171605;28;20051;-81
2023/05/18 15:10:22;;;;;;;2.53;1.75;;;;;;;;;;6182368;28;20051;-80
2023/05/18 15:13:23;;;;;;;2.95;1.67;;;;;;;;;;6177653;28;20319;-81
2023/05/18 15:16:25;;;;;;;4.55;2.75;;;;;;;;;;6171098;28;20336;-79
2023/05/18 15:19:27;;;;;;;4.20;2.00;;;;;;;;;;6177038;28;20046;-79
2023/05/18 15:22:29;;;;;;;3.22;1.83;;;;;;;;;;6186071;28;20106;-79
2023/05/18 15:25:32;;;;;;;5.72;1.92;;;;;;;;;;6171774;28;21594;-79
2023/05/18 15:28:33;;;;;;;5.18;2.00;;;;;;;;;;6169630;28;20067;-79
2023/05/18 15:31:38;;;;;;;3.70;2.15;;;;;;;;;;6186147;28;20416;-77
2023/05/18 15:34:39;;;;;;;4.72;2.10;;;;;;;;;;6170035;28;20059;-79
2023/05/18 15:37:41;;;;;;;91.55;59.95;;;;;;;;;;6171317;28;20117;-78
2023/05/18 15:40:46;;;;;;;100.30;65.18;;;;;;;;;;6174750;28;20220;-80
2023/05/18 15:43:48;;;;;;;94.55;61.40;;;;;;;;;;6188077;28;20114;-77
2023/05/18 15:46:50;;;;;;;59.28;36.88;;;;;;;;;;6172762;28;20561;-79
2023/05/18 15:49:52;;;;;;;8.60;3.47;;;;;;;;;;6178616;28;20350;-79
2023/05/18 15:52:54;;;;;;;4.15;1.92;;;;;;;;;;6179186;28;20095;-79
2023/05/18 15:55:57;;;;;;;2.90;1.85;;;;;;;;;;6169220;28;20054;-79
2023/05/18 15:58:58;;;;;;;4.38;1.73;;;;;;;;;;6185498;28;20061;-80
2023/05/18 16:02:00;;;;;;;1.70;1.40;;;;;;;;;;6172898;28;20287;-80
2023/05/18 16:05:02;;;;;;;5.90;1.50;;;;;;;;;;6172107;28;20148;-79
2023/05/18 16:08:03;;;;;;;3.08;1.85;;;;;;;;;;6170533;28;20318;-80
2023/05/18 16:11:06;;;;;;;3.53;1.67;;;;;;;;;;6173620;28;20074;-79
2023/05/18 16:14:08;;;;;;;2.40;1.70;;;;;;;;;;6175540;28;20305;-79
2023/05/18 16:17:10;;;;;;;7.25;1.90;;;;;;;;;;6168762;28;20059;-80
2023/05/18 16:20:12;;;;;;;3.10;1.50;;;;;;;;;;6171440;28;20055;-80
2023/05/18 16:23:14;;;;;;;3.65;1.40;;;;;;;;;;6171828;28;20068;-78
2023/05/18 16:26:24;;;;;;;2.13;1.58;;;;;;;;;;6167584;28;20058;-80
2023/05/18 16:29:26;;;;;;;2.47;1.50;;;;;;;;;;6169898;28;20062;-79
2023/05/18 16:32:31;;;;;;;1.98;1.25;;;;;;;;;;6177835;28;20042;-80
2023/05/18 16:35:33;;;;;;;2.25;1.05;;;;;;;;;;6193602;28;20097;-80
2023/05/18 16:38:36;;;;;;;4.35;1.50;;;;;;;;;;6193738;28;20047;-80
2023/05/18 16:41:39;;;;;;;2.28;1.40;;;;;;;;;;6167710;28;20346;-80
2023/05/18 16:44:41;;;;;;;2.15;1.30;;;;;;;;;;6193385;28;20054;-80
2023/05/18 16:47:43;;;;;;;3.20;1.40;;;;;;;;;;6194107;28;20057;-78
2023/05/18 16:50:45;;;;;;;1.60;1.45;;;;;;;;;;6193236;28;20050;-79
2023/05/18 16:53:51;;;;;;;3.10;1.25;;;;;;;;;;6192830;28;20076;-79
2023/05/18 16:56:54;;;;;;;6.05;1.70;;;;;;;;;;6194364;28;20046;-80
2023/05/18 16:59:59;;;;;;;;;;;;;;;;;;6189758;28;20141;-80
2023/05/18 17:03:02;;;;;;;2.33;1.35;;;;;;;;;;6189994;28;19965;-80
2023/05/18 17:06:04;;;;;;;2.80;1.20;;;;;;;;;;6170741;28;20772;-80
2023/05/18 17:09:06;;;;;;;5.03;1.48;;;;;;;;;;6172011;28;20047;-80
2023/05/18 17:12:10;;;;;;;2.30;1.20;;;;;;;;;;6168939;28;20317;-80
2023/05/18 17:15:12;;;;;;;2.97;1.00;;;;;;;;;;6171217;28;20051;-78
2023/05/18 17:18:13;;;;;;;2.83;1.20;;;;;;;;;;6167585;28;20112;-77
2023/05/18 17:21:15;;;;;;;2.78;1.30;;;;;;;;;;6170714;28;20071;-79
2023/05/18 17:24:17;;;;;;;3.85;1.20;;;;;;;;;;6168449;28;20371;-79
2023/05/18 17:27:21;;;;;;;2.03;1.27;;;;;;;;;;6167641;28;20055;-78
2023/05/18 17:30:23;;;;;;;2.88;1.35;;;;;;;;;;6170048;28;20055;-79
2023/05/18 17:33:25;;;;;;;2.58;1.10;;;;;;;;;;6169653;28;20058;-78
2023/05/18 17:36:26;;;;;;;2.33;0.98;;;;;;;;;;6173097;28;20058;-78
2023/05/18 17:39:31;;;;;;;5.05;1.67;;;;;;;;;;6186005;28;20441;-78
2023/05/18 17:42:35;;;;;;;3.97;1.50;;;;;;;;;;6168511;28;20066;-78
2023/05/18 17:45:37;;;;;;;3.05;1.30;;;;;;;;;;6166791;28;20373;-79
2023/05/18 17:48:39;;;;;;;3.78;1.10;;;;;;;;;;6152644;28;20051;-77
2023/05/18 17:51:41;;;;;;;2.15;1.50;;;;;;;;;;6167564;28;20047;-78
2023/05/18 17:54:42;;;;;;;5.50;1.48;;;;;;;;;;6169214;28;20125;-79
2023/05/18 17:57:46;;;;;;;3.05;1.25;;;;;;;;;;6179728;28;20452;-77
2023/05/18 18:00:47;;;;;;;3.78;1.38;;;;;;;;;;6164510;28;20055;-75
2023/05/18 18:03:49;;;;;;;1.90;1.20;;;;;;;;;;6168405;28;20107;-77
2023/05/18 18:06:53;;;;;;;4.32;1.60;;;;;;;;;;6175289;28;20246;-76
2023/05/18 18:09:54;;;;;;;;;;;;;;;;;;6177003;28;20117;-76
2023/05/18 18:12:57;;;;;;;3.10;1.20;;;;;;;;;;6172602;28;19958;-77